createdAt,value
2022-08-18T00:02:28.833Z,96000.97
2022-08-18T00:04:58.011Z,96006.03
2022-08-18T00:07:32.218Z,96014.44
2022-08-18T00:10:01.518Z,95998.13
2022-08-18T00:12:37.146Z,96008.03
2022-08-18T00:15:12.317Z,96017.13
2022-08-18T00:17:39.456Z,96024.25
2022-08-18T00:20:12.134Z,96030.47
2022-08-18T00:22:42.211Z,96038.84
2022-08-18T00:25:12.180Z,96035.91
2022-08-18T00:27:41.301Z,96046.59
2022-08-18T00:30:13.500Z,96057.28
2022-08-18T00:32:45.557Z,96065.28
2022-08-18T00:35:28.954Z,96070.59
2022-08-18T00:37:59.579Z,96075.41
2022-08-18T00:40:38.533Z,96072.19
2022-08-18T00:43:11.791Z,96078.31
2022-08-18T00:45:43.013Z,96049.38
2022-08-18T00:48:12.635Z,96042.44
2022-08-18T00:50:58.317Z,96039.25
2022-08-18T00:53:43.959Z,96042.75
2022-08-18T00:56:39.505Z,96063.16
2022-08-18T00:59:23.757Z,96061.00
2022-08-18T01:01:53.993Z,96057.25
2022-08-18T01:04:43.312Z,96059.94
2022-08-18T01:07:41.221Z,96057.22
2022-08-18T01:10:08.733Z,96070.19
2022-08-18T01:12:44.985Z,96080.84
2022-08-18T01:15:28.230Z,96088.31
2022-08-18T01:18:17.933Z,96072.22
2022-08-18T01:21:32.980Z,96067.94
2022-08-18T01:24:04.236Z,96060.53
2022-08-18T01:26:32.200Z,96063.19
2022-08-18T01:29:09.699Z,96060.00
2022-08-18T01:31:54.920Z,96057.59
2022-08-18T01:34:28.383Z,96066.22
2022-08-18T01:36:56.271Z,96074.75
2022-08-18T01:41:23.094Z,96073.16
2022-08-18T01:42:12.917Z,96081.44
2022-08-18T01:44:41.689Z,96083.03
2022-08-18T01:47:11.278Z,96083.31
2022-08-18T01:49:43.929Z,96073.41
2022-08-18T01:52:21.828Z,96077.69
2022-08-18T01:54:50.243Z,96078.25
2022-08-18T01:57:19.284Z,96086.25
2022-08-18T01:59:46.201Z,96077.69
2022-08-18T02:02:18.753Z,96081.44
2022-08-18T02:04:47.228Z,96076.91
2022-08-18T02:07:14.975Z,96089.47
2022-08-18T02:09:44.213Z,96087.59
2022-08-18T02:12:12.366Z,96097.19
2022-08-18T02:14:39.891Z,96098.53
2022-08-18T02:17:11.014Z,96091.06
2022-08-18T02:19:42.611Z,96085.72
2022-08-18T02:22:12.861Z,96082.50
2022-08-18T02:24:40.329Z,96075.03
2022-08-18T02:27:08.639Z,96066.19
2022-08-18T02:29:36.593Z,96058.97
2022-08-18T02:32:04.556Z,96065.63
2022-08-18T02:34:31.465Z,96081.19
2022-08-18T02:37:00.827Z,96085.72
2022-08-18T02:39:28.580Z,96084.63
2022-08-18T02:41:55.515Z,96058.44
2022-08-18T02:44:22.483Z,96055.75
2022-08-18T02:46:54.051Z,96067.50
2022-08-18T02:49:21.040Z,96076.59
2022-08-18T02:51:48.197Z,96079.25
2022-08-18T02:54:15.416Z,96083.03
2022-08-18T02:56:45.446Z,96069.66
2022-08-18T02:59:20.411Z,96070.41
2022-08-18T03:01:51.478Z,96064.31
2022-08-18T03:04:30.753Z,96064.53
2022-08-18T03:07:04.862Z,96066.41
2022-08-18T03:09:33.094Z,96068.03
2022-08-18T03:12:00.406Z,96064.81
2022-08-18T03:14:28.349Z,96081.44
2022-08-18T03:16:55.533Z,96078.75
2022-08-18T03:19:29.971Z,96077.41
2022-08-18T03:22:02.619Z,96071.81
2022-08-18T03:24:31.673Z,96074.19
2022-08-18T03:27:01.482Z,96069.94
2022-08-18T03:29:32.398Z,96072.88
2022-08-18T03:32:05.753Z,96077.13
2022-08-18T03:34:33.478Z,96079.81
2022-08-18T03:37:00.678Z,96080.31
2022-08-18T03:39:28.435Z,96067.00
2022-08-18T03:41:59.772Z,96072.31
2022-08-18T03:44:33.997Z,96068.06
2022-08-18T03:47:04.809Z,96063.53
2022-08-18T03:49:33.809Z,96068.06
2022-08-18T03:52:01.656Z,96066.44
2022-08-18T03:54:32.194Z,96065.13
2022-08-18T03:57:00.307Z,96060.31
2022-08-18T03:59:27.927Z,96063.53
2022-08-18T04:01:55.594Z,96061.13
2022-08-18T04:04:26.501Z,96058.72
2022-08-18T04:07:05.010Z,96063.25
2022-08-18T04:09:34.222Z,96065.88
2022-08-18T04:12:16.476Z,96053.06
2022-08-18T04:14:49.070Z,96041.06
2022-08-18T04:17:23.416Z,96035.97
2022-08-18T04:19:54.563Z,96040.25
2022-08-18T04:22:22.759Z,96048.75
2022-08-18T04:24:50.273Z,96060.47
2022-08-18T04:27:19.636Z,96055.59
2022-08-18T04:29:47.016Z,96051.88
2022-08-18T04:32:14.561Z,96053.50
2022-08-18T04:34:41.615Z,96048.94
2022-08-18T04:37:09.671Z,96053.44
2022-08-18T04:39:37.401Z,96047.66
2022-08-18T04:42:05.783Z,96047.16
2022-08-18T04:44:32.777Z,96042.38
2022-08-18T04:47:01.935Z,96051.44
2022-08-18T04:49:30.238Z,96053.03
2022-08-18T04:52:38.418Z,96039.69
2022-08-18T04:55:05.683Z,96047.44
2022-08-18T04:57:34.858Z,96045.59
2022-08-18T05:00:05.318Z,96056.25
2022-08-18T05:02:33.045Z,96064.00
2022-08-18T05:05:03.345Z,96063.25
2022-08-18T05:07:30.403Z,96068.28
2022-08-18T05:09:57.373Z,96070.16
2022-08-18T05:12:26.416Z,96065.31
2022-08-18T05:14:56.673Z,96064.78
2022-08-18T05:17:30.586Z,96070.69
2022-08-18T05:20:00.995Z,96073.31
2022-08-18T05:22:31.545Z,96084.00
2022-08-18T05:25:00.404Z,96087.25
2022-08-18T05:27:35.657Z,96084.25
2022-08-18T05:30:05.590Z,96085.16
2022-08-18T05:32:48.544Z,96091.56
2022-08-18T05:35:26.774Z,96076.63
2022-08-18T05:38:16.941Z,96068.56
2022-08-18T05:40:46.072Z,96071.19
2022-08-18T05:43:15.046Z,96076.50
2022-08-18T05:45:42.536Z,96083.41
2022-08-18T05:48:09.409Z,96078.56
2022-08-18T05:50:37.960Z,96086.47
2022-08-18T05:53:14.757Z,96101.94
2022-08-18T05:56:21.812Z,96107.13
2022-08-18T05:58:55.686Z,96103.97
2022-08-18T06:01:30.280Z,96091.69
2022-08-18T06:04:11.917Z,96096.03
2022-08-18T06:06:39.009Z,96105.91
2022-08-18T06:09:47.990Z,96107.06
2022-08-18T06:12:42.199Z,96103.56
2022-08-18T06:15:48.980Z,96123.81
2022-08-18T06:19:08.494Z,96128.44
2022-08-18T06:21:39.283Z,96137.91
2022-08-18T06:25:01.424Z,96133.03
2022-08-18T06:27:45.383Z,96133.50
2022-08-18T06:30:22.814Z,96135.59
2022-08-18T06:33:03.647Z,96127.75
2022-08-18T06:35:50.228Z,96120.22
2022-08-18T06:38:40.625Z,96117.13
2022-08-18T06:41:42.215Z,96122.84
2022-08-18T06:44:19.882Z,96118.91
2022-08-18T06:47:04.121Z,96126.06
2022-08-18T06:49:51.247Z,96126.88
2022-08-18T06:52:29.054Z,96126.63
2022-08-18T06:55:08.833Z,96121.38
2022-08-18T06:57:39.758Z,96113.38
2022-08-18T07:00:20.506Z,96118.53
2022-08-18T07:03:11.573Z,96113.75
2022-08-18T07:05:55.839Z,96089.63
2022-08-18T07:08:45.617Z,96086.03
2022-08-18T07:11:18.236Z,96089.09
2022-08-18T07:14:03.572Z,96082.69
2022-08-18T07:19:30.701Z,96090.22
2022-08-18T07:22:14.706Z,96075.34
2022-08-18T07:24:50.955Z,96069.03
2022-08-18T07:27:41.386Z,96077.84
2022-08-18T07:30:25.631Z,96075.50
2022-08-18T07:33:04.601Z,96074.72
2022-08-18T07:35:46.251Z,96057.69
2022-08-18T07:38:44.140Z,96052.88
2022-08-18T07:41:35.675Z,96062.69
2022-08-18T07:44:27.793Z,96071.31
2022-08-18T07:47:08.037Z,96074.91
2022-08-18T07:49:37.169Z,96079.03
2022-08-18T07:52:35.880Z,96080.25
2022-08-18T07:55:07.389Z,96067.28
2022-08-18T07:57:42.970Z,96070.22
2022-08-18T08:03:38.175Z,96085.38
2022-08-18T08:06:29.779Z,96065.38
2022-08-18T08:09:12.769Z,96057.88
2022-08-18T08:12:09.671Z,96067.25
2022-08-18T08:14:46.516Z,96068.09
2022-08-18T08:17:36.093Z,96067.88
2022-08-18T08:20:18.910Z,96070.44
2022-08-18T08:23:24.566Z,96060.78
2022-08-18T08:26:16.776Z,96071.81
2022-08-18T08:29:22.890Z,96072.63
2022-08-18T08:32:05.242Z,96069.00
2022-08-18T08:34:54.608Z,96070.25
2022-08-18T08:37:33.635Z,96065.78
2022-08-18T08:40:23.568Z,96078.66
2022-08-18T08:42:58.800Z,96063.94
2022-08-18T08:45:38.149Z,96054.09
2022-08-18T08:48:14.647Z,96050.75
2022-08-18T08:50:59.404Z,96040.59
2022-08-18T08:53:43.286Z,96036.41
2022-08-18T08:56:16.382Z,96036.88
2022-08-18T08:58:53.337Z,96034.09
2022-08-18T09:01:40.188Z,96019.34
2022-08-18T09:05:11.201Z,96016.47
2022-08-18T09:08:21.303Z,96014.00
2022-08-18T09:11:13.223Z,96001.19
2022-08-18T09:14:08.985Z,96002.84
2022-08-18T09:17:13.706Z,96012.88
2022-08-18T09:19:58.933Z,96025.19
2022-08-18T09:22:44.071Z,96018.78
2022-08-18T09:25:43.359Z,96017.88
2022-08-18T09:28:42.956Z,96022.44
2022-08-18T09:31:09.713Z,96020.81
2022-08-18T09:33:49.076Z,96025.53
2022-08-18T09:37:01.162Z,96023.69
2022-08-18T09:39:54.767Z,96018.81
2022-08-18T09:42:52.072Z,96028.19
2022-08-18T09:45:33.681Z,96026.94
2022-08-18T09:48:29.146Z,96033.34
2022-08-18T09:51:01.524Z,96024.41
2022-08-18T09:53:46.003Z,96012.28
2022-08-18T09:56:38.581Z,96010.91
2022-08-18T10:02:41.451Z,96005.16
2022-08-18T10:05:18.950Z,96000.06
2022-08-18T10:08:03.721Z,96004.97
2022-08-18T10:11:09.259Z,95999.94
2022-08-18T10:13:55.705Z,96004.97
2022-08-18T10:17:15.963Z,95999.44
2022-08-18T10:20:09.161Z,96003.66
2022-08-18T10:22:54.681Z,96009.28
2022-08-18T10:25:46.548Z,96014.78
2022-08-18T10:28:55.409Z,96013.84
2022-08-18T10:31:27.343Z,96008.16
2022-08-18T10:34:01.751Z,96010.44
2022-08-18T10:36:48.897Z,96008.31
2022-08-18T10:39:44.454Z,96019.69
2022-08-18T10:42:31.483Z,96011.13
2022-08-18T10:45:24.516Z,95997.78
2022-08-18T10:48:24.427Z,96003.28
2022-08-18T10:54:29.253Z,95996.75
2022-08-18T10:57:10.879Z,95977.44
2022-08-18T10:59:58.286Z,95974.91
2022-08-18T11:06:21.506Z,95970.13
2022-08-18T11:09:00.533Z,95956.63
2022-08-18T11:11:39.357Z,95969.50
2022-08-18T11:14:39.651Z,95970.19
2022-08-18T11:17:40.512Z,95965.81
2022-08-18T11:20:14.257Z,95972.72
2022-08-18T11:22:55.830Z,95971.69
2022-08-18T11:25:36.795Z,95966.59
2022-08-18T11:28:15.723Z,95963.78
2022-08-18T11:30:49.504Z,95963.28
2022-08-18T11:36:06.913Z,95961.38
2022-08-18T11:38:37.565Z,95945.63
2022-08-18T11:41:19.196Z,95926.72
2022-08-18T11:43:50.530Z,95907.66
2022-08-18T11:46:27.717Z,95914.16
2022-08-18T11:48:57.332Z,95911.00
2022-08-18T11:51:29.408Z,95910.47
2022-08-18T11:54:18.822Z,95916.16
2022-08-18T11:56:45.905Z,95920.91
2022-08-18T11:59:52.757Z,95910.34
2022-08-18T12:02:21.735Z,95901.03
2022-08-18T12:05:10.466Z,95892.34
2022-08-18T12:07:57.102Z,95880.75
2022-08-18T12:10:28.672Z,95866.31
2022-08-18T12:13:00.649Z,95862.91
2022-08-18T12:15:43.459Z,95858.03
2022-08-18T12:18:11.650Z,95843.31
2022-08-18T12:20:53.588Z,95834.38
2022-08-18T12:23:21.274Z,95830.72
2022-08-18T12:25:48.196Z,95834.09
2022-08-18T12:28:22.311Z,95821.00
2022-08-18T12:30:56.699Z,95824.84
2022-08-18T12:33:25.283Z,95823.56
2022-08-18T12:36:04.209Z,95831.25
2022-08-18T12:38:33.166Z,95846.88
2022-08-18T12:41:04.997Z,95850.81
2022-08-18T12:43:32.476Z,95861.41
2022-08-18T12:46:01.074Z,95860.56
2022-08-18T12:48:30.527Z,95853.56
2022-08-18T12:50:59.807Z,95841.50
2022-08-18T12:53:29.964Z,95840.50
2022-08-18T12:56:08.633Z,95829.44
2022-08-18T12:58:38.460Z,95823.28
2022-08-18T13:01:07.670Z,95834.03
2022-08-18T13:03:35.315Z,95845.09
2022-08-18T13:06:04.605Z,95841.00
2022-08-18T13:08:33.789Z,95844.22
2022-08-18T13:11:23.850Z,95844.66
2022-08-18T13:13:56.014Z,95843.31
2022-08-18T13:16:30.627Z,95835.88
2022-08-18T13:19:10.646Z,95837.69
2022-08-18T13:21:41.118Z,95833.88
2022-08-18T13:24:09.702Z,95825.75
2022-08-18T13:26:41.960Z,95821.41
2022-08-18T13:29:10.098Z,95811.09
2022-08-18T13:31:38.399Z,95812.22
2022-08-18T13:34:11.659Z,95799.03
2022-08-18T13:36:46.027Z,95797.00
2022-08-18T13:39:24.147Z,95788.66
2022-08-18T13:41:53.742Z,95783.75
2022-08-18T13:44:22.429Z,95794.19
2022-08-18T13:46:54.414Z,95792.84
2022-08-18T13:49:30.529Z,95790.59
2022-08-18T13:52:00.505Z,95800.34
2022-08-18T13:54:33.893Z,95794.88
2022-08-18T13:57:04.879Z,95783.59
2022-08-18T13:59:34.187Z,95796.63
2022-08-18T14:02:09.068Z,95805.97
2022-08-18T14:04:37.942Z,95793.13
2022-08-18T14:07:10.401Z,95807.69
2022-08-18T14:09:39.356Z,95820.38
2022-08-18T14:12:22.528Z,95812.44
2022-08-18T14:14:55.667Z,95803.97
2022-08-18T14:17:25.927Z,95806.50
2022-08-18T14:20:15.154Z,95808.13
2022-08-18T14:23:10.206Z,95785.59
2022-08-18T14:25:56.162Z,95783.19
2022-08-18T14:28:24.913Z,95773.69
2022-08-18T14:30:54.444Z,95757.03
2022-08-18T14:33:34.489Z,95747.69
2022-08-18T14:36:13.611Z,95726.81
2022-08-18T14:38:41.347Z,95732.25
2022-08-18T14:41:13.049Z,95721.41
2022-08-18T14:44:10.910Z,95713.69
2022-08-18T14:46:30.459Z,95708.69
2022-08-18T14:48:59.890Z,95703.97
2022-08-18T14:51:33.442Z,95697.38
2022-08-18T14:54:01.549Z,95694.47
2022-08-18T14:56:29.529Z,95700.56
2022-08-18T14:58:56.888Z,95697.88
2022-08-18T15:01:24.773Z,95704.91
2022-08-18T15:03:54.409Z,95703.75
2022-08-18T15:06:23.063Z,95703.09
2022-08-18T15:08:56.972Z,95704.91
2022-08-18T15:11:24.939Z,95711.69
2022-08-18T15:13:55.038Z,95713.94
2022-08-18T15:16:26.986Z,95713.25
2022-08-18T15:18:59.352Z,95710.56
2022-08-18T15:21:47.846Z,95717.72
2022-08-18T15:24:37.672Z,95711.78
2022-08-18T15:27:10.516Z,95716.50
2022-08-18T15:29:55.538Z,95713.88
2022-08-18T15:32:24.484Z,95717.09
2022-08-18T15:34:52.148Z,95714.41
2022-08-18T15:37:24.157Z,95717.44
2022-08-18T15:40:02.819Z,95709.78
2022-08-18T15:42:30.098Z,95712.84
2022-08-18T15:45:11.743Z,95713.22
2022-08-18T15:47:41.383Z,95706.22
2022-08-18T15:50:25.185Z,95717.44
2022-08-18T15:52:58.093Z,95716.81
2022-08-18T15:55:29.106Z,95704.47
2022-08-18T15:58:01.281Z,95703.72
2022-08-18T16:00:31.782Z,95696.06
2022-08-18T16:03:08.904Z,95689.19
2022-08-18T16:05:47.296Z,95687.75
2022-08-18T16:08:18.113Z,95694.47
2022-08-18T16:10:45.123Z,95700.78
2022-08-18T16:13:14.544Z,95698.41
2022-08-18T16:15:46.896Z,95689.44
2022-08-18T16:18:18.939Z,95687.00
2022-08-18T16:20:45.845Z,95692.88
2022-08-18T16:23:13.559Z,95702.25
2022-08-18T16:25:43.074Z,95695.63
2022-08-18T16:28:13.123Z,95706.91
2022-08-18T16:30:41.060Z,95704.91
2022-08-18T16:33:08.594Z,95701.31
2022-08-18T16:35:37.306Z,95691.34
2022-08-18T16:38:08.577Z,95691.88
2022-08-18T16:40:36.812Z,95686.47
2022-08-18T16:43:04.909Z,95685.78
2022-08-18T16:45:33.390Z,95674.34
2022-08-18T16:48:00.766Z,95659.69
2022-08-18T16:50:28.060Z,95659.69
2022-08-18T16:52:55.587Z,95657.19
2022-08-18T16:55:22.509Z,95649.34
2022-08-18T16:58:09.333Z,95650.47
2022-08-18T17:00:56.856Z,95656.25
2022-08-18T17:03:43.365Z,95656.28
2022-08-18T17:06:13.931Z,95664.47
2022-08-18T17:08:42.397Z,95672.44
2022-08-18T17:11:14.084Z,95672.44
2022-08-18T17:13:42.374Z,95668.03
2022-08-18T17:16:10.956Z,95665.66
2022-08-18T17:18:39.597Z,95669.47
2022-08-18T17:21:10.226Z,95678.53
2022-08-18T17:23:38.935Z,95678.06
2022-08-18T17:26:10.357Z,95690.94
2022-08-18T17:28:50.265Z,95688.06
2022-08-18T17:31:21.133Z,95699.16
2022-08-18T17:33:48.071Z,95699.16
2022-08-18T17:36:30.386Z,95691.38
2022-08-18T17:39:07.797Z,95688.81
2022-08-18T17:41:55.211Z,95697.69
2022-08-18T17:44:31.311Z,95701.16
2022-08-18T17:47:02.307Z,95698.44
2022-08-18T17:50:27.382Z,95695.53
2022-08-18T17:52:50.475Z,95691.06
2022-08-18T17:55:31.804Z,95698.78
2022-08-18T17:58:14.460Z,95711.25
2022-08-18T18:00:41.951Z,95722.22
2022-08-18T18:03:12.712Z,95735.03
2022-08-18T18:05:46.977Z,95736.59
2022-08-18T18:08:13.927Z,95734.72
2022-08-18T18:11:05.366Z,95741.78
2022-08-18T18:13:33.639Z,95746.34
2022-08-18T18:16:19.635Z,95773.56
2022-08-18T18:18:47.489Z,95779.59
2022-08-18T18:21:14.276Z,95784.03
2022-08-18T18:23:59.285Z,95795.47
2022-08-18T18:26:30.328Z,95794.84
2022-08-18T18:29:32.282Z,95798.31
2022-08-18T18:32:27.688Z,95801.06
2022-08-18T18:35:31.287Z,95812.09
2022-08-18T18:38:05.808Z,95803.28
2022-08-18T18:40:41.263Z,95809.25
2022-08-18T18:43:35.846Z,95820.72
2022-08-18T18:46:41.910Z,95823.78
2022-08-18T18:49:28.420Z,95836.78
2022-08-18T18:52:19.102Z,95842.13
2022-08-18T18:55:25.776Z,95851.09
2022-08-18T18:58:22.521Z,95849.59
2022-08-18T19:00:59.494Z,95851.66
2022-08-18T19:03:47.088Z,95853.59
2022-08-18T19:06:50.070Z,95840.03
2022-08-18T19:09:29.486Z,95844.81
2022-08-18T19:12:08.232Z,95849.47
2022-08-18T19:14:52.143Z,95851.59
2022-08-18T19:17:40.736Z,95865.03
2022-08-18T19:20:16.189Z,95851.34
2022-08-18T19:23:44.445Z,95867.47
2022-08-18T19:26:19.118Z,95885.72
2022-08-18T19:29:12.496Z,95889.44
2022-08-18T19:31:49.493Z,95896.66
2022-08-18T19:34:31.064Z,95892.78
2022-08-18T19:37:31.439Z,95899.69
2022-08-18T19:40:19.849Z,95896.75
2022-08-18T19:42:59.554Z,95895.84
2022-08-18T19:45:44.509Z,95902.81
2022-08-18T19:48:36.147Z,95917.13
2022-08-18T19:51:21.040Z,95911.94
2022-08-18T19:54:21.664Z,95908.66
2022-08-18T19:57:26.062Z,95916.41
2022-08-18T20:00:18.977Z,95908.22
2022-08-18T20:03:38.277Z,95911.91
2022-08-18T20:06:39.688Z,95914.28
2022-08-18T20:09:39.829Z,95924.84
2022-08-18T20:12:42.865Z,95936.78
2022-08-18T20:15:22.406Z,95936.75
2022-08-18T20:17:57.657Z,95930.03
2022-08-18T20:20:31.909Z,95921.53
2022-08-18T20:23:01.114Z,95922.53
2022-08-18T20:25:41.823Z,95931.19
2022-08-18T20:28:11.654Z,95936.41
2022-08-18T20:31:19.133Z,95925.28
2022-08-18T20:34:14.007Z,95915.59
2022-08-18T20:36:44.480Z,95920.53
2022-08-18T20:39:41.900Z,95934.41
2022-08-18T20:42:21.088Z,95924.22
2022-08-18T20:44:57.616Z,95926.63
2022-08-18T20:47:48.987Z,95928.38
2022-08-18T20:50:53.494Z,95932.25
2022-08-18T20:53:41.337Z,95935.25
2022-08-18T20:56:43.900Z,95940.38
2022-08-18T20:59:19.825Z,95939.25
2022-08-18T21:01:57.224Z,95940.56
2022-08-18T21:04:49.516Z,95940.06
2022-08-18T21:07:38.096Z,95937.78
2022-08-18T21:10:20.910Z,95955.94
2022-08-18T21:12:54.112Z,95956.66
2022-08-18T21:15:26.979Z,95953.66
2022-08-18T21:18:19.140Z,95959.25
2022-08-18T21:20:55.537Z,95972.06
2022-08-18T21:23:37.625Z,95964.31
2022-08-18T21:26:14.865Z,95969.09
2022-08-18T21:28:48.057Z,95965.81
2022-08-18T21:31:42.753Z,95967.97
2022-08-18T21:34:35.539Z,95970.41
2022-08-18T21:37:07.828Z,95974.75
2022-08-18T21:39:40.127Z,95971.44
2022-08-18T21:42:08.240Z,95967.38
2022-08-18T21:44:42.335Z,95975.22
2022-08-18T21:47:24.793Z,95969.72
2022-08-18T21:50:27.551Z,95961.78
2022-08-18T21:53:00.762Z,95972.41
2022-08-18T21:55:40.071Z,95973.19
2022-08-18T21:58:16.713Z,95977.22
2022-08-18T22:01:28.221Z,95956.94
2022-08-18T22:04:02.921Z,95964.97
2022-08-18T22:06:41.333Z,95955.00
2022-08-18T22:09:29.763Z,95980.00
2022-08-18T22:12:36.976Z,95975.84
2022-08-18T22:15:25.461Z,95962.34
2022-08-18T22:18:05.297Z,95968.00
2022-08-18T22:20:59.317Z,95975.25
2022-08-18T22:24:03.233Z,95987.34
2022-08-18T22:26:37.062Z,95984.84
2022-08-18T22:29:07.324Z,95981.09
2022-08-18T22:31:54.741Z,95970.69
2022-08-18T22:34:27.989Z,95973.59
2022-08-18T22:37:05.090Z,95965.50
2022-08-18T22:39:51.993Z,95960.31
2022-08-18T22:42:23.845Z,95959.22
2022-08-18T22:44:51.065Z,95956.75
2022-08-18T22:47:18.369Z,95942.31
2022-08-18T22:49:45.322Z,95940.69
2022-08-18T22:52:19.157Z,95932.63
2022-08-18T22:54:46.340Z,95928.63
2022-08-18T22:57:17.501Z,95919.31
2022-08-18T22:59:46.890Z,95906.47
2022-08-18T23:02:16.312Z,95903.53
2022-08-18T23:04:49.128Z,95886.19
2022-08-18T23:07:16.280Z,95881.88
2022-08-18T23:09:43.500Z,95875.53
2022-08-18T23:12:15.502Z,95874.47
2022-08-18T23:14:46.229Z,95866.22
2022-08-18T23:17:14.231Z,95859.53
2022-08-18T23:19:41.566Z,95855.31
2022-08-18T23:22:09.997Z,95851.59
2022-08-18T23:24:38.131Z,95859.34
2022-08-18T23:27:06.179Z,95865.50
2022-08-18T23:29:37.460Z,95855.66
2022-08-18T23:32:05.774Z,95845.56
2022-08-18T23:34:34.141Z,95848.47
2022-08-18T23:37:03.268Z,95843.41
2022-08-18T23:39:33.173Z,95854.25
2022-08-18T23:42:01.070Z,95867.63
2022-08-18T23:44:29.058Z,95891.16
2022-08-18T23:46:58.055Z,95883.69
2022-08-18T23:49:28.589Z,95885.56
2022-08-18T23:51:56.102Z,95893.31
2022-08-18T23:54:27.752Z,95903.47
2022-08-18T23:56:55.085Z,95908.03
2022-08-18T23:59:24.001Z,95939.78
